createdAt,value
2019-05-05T00:02:21.249Z,98289.70
2019-05-05T00:04:42.476Z,98301.84
2019-05-05T00:06:46.227Z,98310.16
2019-05-05T00:08:50.051Z,98312.25
2019-05-05T00:11:09.578Z,98311.92
2019-05-05T00:13:20.954Z,98304.81
2019-05-05T00:15:47.849Z,98311.97
2019-05-05T00:17:51.573Z,98317.27
2019-05-05T00:19:55.331Z,98316.21
2019-05-05T00:21:59.138Z,98313.23
2019-05-05T00:24:04.633Z,98319.23
2019-05-05T00:26:08.621Z,98319.14
2019-05-05T00:28:14.336Z,98314.59
2019-05-05T00:30:18.080Z,98312.03
2019-05-05T00:32:21.930Z,98308.08
2019-05-05T00:34:25.764Z,98305.70
2019-05-05T00:36:30.560Z,98310.26
2019-05-05T00:38:35.203Z,98320.20
2019-05-05T00:40:39.139Z,98321.55
2019-05-05T00:42:42.903Z,98318.86
2019-05-05T00:44:46.777Z,98322.91
2019-05-05T00:47:08.154Z,98324.58
2019-05-05T00:49:11.922Z,98328.34
2019-05-05T00:51:15.931Z,98333.67
2019-05-05T00:53:19.742Z,98336.79
2019-05-05T00:55:24.437Z,98335.89
2019-05-05T00:57:28.215Z,98333.09
2019-05-05T00:59:32.005Z,98329.89
2019-05-05T01:01:55.716Z,98333.80
2019-05-05T01:04:00.029Z,98332.87
2019-05-05T01:06:14.982Z,98336.41
2019-05-05T01:08:22.052Z,98330.69
2019-05-05T01:10:25.778Z,98330.59
2019-05-05T01:12:30.656Z,98334.86
2019-05-05T01:14:35.447Z,98347.27
2019-05-05T01:16:39.315Z,98344.58
2019-05-05T01:18:45.072Z,98345.93
2019-05-05T01:20:48.764Z,98351.31
2019-05-05T01:22:55.328Z,98348.43
2019-05-05T01:24:59.320Z,98360.23
2019-05-05T01:27:04.225Z,98357.77
2019-05-05T01:29:12.112Z,98363.79
2019-05-05T01:31:18.140Z,98363.37
2019-05-05T01:33:31.910Z,98369.07
2019-05-05T01:35:35.790Z,98379.34
2019-05-05T01:37:44.956Z,98382.64
2019-05-05T01:40:04.943Z,98378.72
2019-05-05T01:42:14.294Z,98380.58
2019-05-05T01:44:18.159Z,98383.70
2019-05-05T01:46:21.963Z,98386.17
2019-05-05T01:48:25.904Z,98388.67
2019-05-05T01:50:31.733Z,98399.13
2019-05-05T01:52:35.503Z,98395.81
2019-05-05T01:54:39.315Z,98396.12
2019-05-05T01:56:44.515Z,98399.13
2019-05-05T01:58:49.014Z,98398.63
2019-05-05T02:00:54.560Z,98401.72
2019-05-05T02:02:58.567Z,98400.56
2019-05-05T02:05:04.460Z,98400.28
2019-05-05T02:07:09.041Z,98406.49
2019-05-05T02:09:15.944Z,98412.17
2019-05-05T02:11:19.871Z,98408.86
2019-05-05T02:13:25.170Z,98409.27
2019-05-05T02:15:29.172Z,98398.62
2019-05-05T02:17:35.161Z,98401.71
2019-05-05T02:19:38.643Z,98403.46
2019-05-05T02:21:42.565Z,98408.02
2019-05-05T02:23:47.437Z,98411.75
2019-05-05T02:25:51.353Z,98415.58
2019-05-05T02:27:55.127Z,98411.75
2019-05-05T02:30:07.970Z,98416.30
2019-05-05T02:32:20.237Z,98413.61
2019-05-05T02:34:25.666Z,98415.47
2019-05-05T02:36:30.751Z,98412.27
2019-05-05T02:38:35.508Z,98417.65
2019-05-05T02:40:39.923Z,98421.47
2019-05-05T02:42:46.021Z,98417.25
2019-05-05T02:44:49.949Z,98417.76
2019-05-05T02:47:04.847Z,98422.63
2019-05-05T02:49:09.512Z,98423.14
2019-05-05T02:51:15.088Z,98425.83
2019-05-05T02:53:20.084Z,98437.94
2019-05-05T02:55:26.177Z,98435.25
2019-05-05T02:57:30.018Z,98429.03
2019-05-05T02:59:49.301Z,98439.69
2019-05-05T03:02:04.315Z,98443.11
2019-05-05T03:04:13.945Z,98441.88
2019-05-05T03:06:17.362Z,98431.30
2019-05-05T03:08:24.243Z,98438.23
2019-05-05T03:10:30.610Z,98436.06
2019-05-05T03:12:37.517Z,98436.78
2019-05-05T03:14:44.509Z,98437.80
2019-05-05T03:16:49.330Z,98439.26
2019-05-05T03:18:54.506Z,98437.73
2019-05-05T03:21:04.423Z,98440.09
2019-05-05T03:23:04.248Z,98448.48
2019-05-05T03:25:08.071Z,98444.13
2019-05-05T03:27:11.900Z,98441.66
2019-05-05T03:29:19.559Z,98450.42
2019-05-05T03:31:26.109Z,98444.64
2019-05-05T03:33:29.458Z,98441.22
2019-05-05T03:35:34.552Z,98433.44
2019-05-05T03:37:38.682Z,98442.53
2019-05-05T03:39:46.400Z,98443.15
2019-05-05T03:42:13.956Z,98449.88
2019-05-05T03:44:37.039Z,98446.89
2019-05-05T03:46:43.728Z,98455.14
2019-05-05T03:48:47.227Z,98454.73
2019-05-05T03:50:51.151Z,98451.00
2019-05-05T03:52:55.439Z,98455.03
2019-05-05T03:54:59.416Z,98455.87
2019-05-05T03:57:09.704Z,98448.81
2019-05-05T03:59:14.745Z,98449.36
2019-05-05T04:01:34.873Z,98446.78
2019-05-05T04:03:38.712Z,98454.31
2019-05-05T04:05:47.085Z,98457.61
2019-05-05T04:07:51.340Z,98460.59
2019-05-05T04:09:55.203Z,98456.54
2019-05-05T04:11:59.084Z,98456.75
2019-05-05T04:14:03.708Z,98453.34
2019-05-05T04:16:31.641Z,98453.75
2019-05-05T04:18:40.577Z,98457.48
2019-05-05T04:20:45.353Z,98461.20
2019-05-05T04:22:51.122Z,98463.89
2019-05-05T04:24:54.932Z,98463.28
2019-05-05T04:26:58.743Z,98463.71
2019-05-05T04:29:05.333Z,98468.30
2019-05-05T04:31:07.949Z,98475.55
2019-05-05T04:33:11.762Z,98486.41
2019-05-05T04:35:15.668Z,98481.03
2019-05-05T04:37:19.482Z,98482.27
2019-05-05T04:39:23.716Z,98490.88
2019-05-05T04:41:27.505Z,98490.55
2019-05-05T04:43:31.302Z,98491.45
2019-05-05T04:45:35.105Z,98491.97
2019-05-05T04:47:43.499Z,98495.31
2019-05-05T04:50:09.052Z,98490.88
2019-05-05T04:52:14.375Z,98496.48
2019-05-05T04:54:24.415Z,98491.62
2019-05-05T04:56:29.990Z,98497.44
2019-05-05T04:58:33.977Z,98504.89
2019-05-05T05:00:38.057Z,98502.42
2019-05-05T05:02:53.939Z,98507.19
2019-05-05T05:05:04.019Z,98508.65
2019-05-05T05:07:08.853Z,98506.39
2019-05-05T05:09:14.502Z,98507.13
2019-05-05T05:11:18.190Z,98512.39
2019-05-05T05:13:23.896Z,98519.34
2019-05-05T05:15:27.531Z,98514.06
2019-05-05T05:17:41.759Z,98519.88
2019-05-05T05:19:45.588Z,98516.79
2019-05-05T05:21:59.424Z,98519.19
2019-05-05T05:23:55.954Z,98527.98
2019-05-05T05:25:59.774Z,98523.33
2019-05-05T05:28:04.195Z,98530.59
2019-05-05T05:30:09.330Z,98536.70
2019-05-05T05:32:13.111Z,98531.53
2019-05-05T05:34:16.904Z,98535.45
2019-05-05T05:36:20.719Z,98534.31
2019-05-05T05:38:24.650Z,98530.19
2019-05-05T05:40:50.219Z,98531.42
2019-05-05T05:42:54.327Z,98528.09
2019-05-05T05:45:23.869Z,98526.66
2019-05-05T05:47:53.637Z,98531.94
2019-05-05T05:50:06.380Z,98532.36
2019-05-05T05:52:15.853Z,98533.70
2019-05-05T05:54:15.729Z,98537.31
2019-05-05T05:56:19.541Z,98546.05
2019-05-05T05:58:24.507Z,98539.59
2019-05-05T06:00:29.514Z,98547.59
2019-05-05T06:02:33.511Z,98545.00
2019-05-05T06:04:37.294Z,98553.06
2019-05-05T06:06:41.105Z,98552.76
2019-05-05T06:08:44.992Z,98549.52
2019-05-05T06:10:48.832Z,98552.52
2019-05-05T06:12:54.691Z,98559.37
2019-05-05T06:14:58.568Z,98557.25
2019-05-05T06:17:04.301Z,98560.14
2019-05-05T06:19:10.290Z,98561.88
2019-05-05T06:21:13.875Z,98560.45
2019-05-05T06:23:17.726Z,98562.36
2019-05-05T06:25:21.478Z,98564.17
2019-05-05T06:27:25.381Z,98567.97
2019-05-05T06:29:29.167Z,98572.56
2019-05-05T06:31:34.154Z,98568.72
2019-05-05T06:33:38.111Z,98571.94
2019-05-05T06:35:44.120Z,98572.97
2019-05-05T06:37:54.311Z,98572.19
2019-05-05T06:40:00.761Z,98572.78
2019-05-05T06:42:23.695Z,98579.40
2019-05-05T06:44:34.091Z,98582.50
2019-05-05T06:46:56.046Z,98587.52
2019-05-05T06:48:59.968Z,98584.27
2019-05-05T06:51:04.190Z,98585.53
2019-05-05T06:53:07.938Z,98590.36
2019-05-05T06:55:13.968Z,98592.23
2019-05-05T06:57:17.488Z,98592.79
2019-05-05T06:59:24.173Z,98599.64
2019-05-05T07:01:27.868Z,98599.75
2019-05-05T07:03:33.660Z,98602.32
2019-05-05T07:05:37.537Z,98597.80
2019-05-05T07:07:43.435Z,98601.27
2019-05-05T07:09:46.887Z,98608.32
2019-05-05T07:11:50.680Z,98606.73
2019-05-05T07:13:54.469Z,98603.63
2019-05-05T07:15:58.197Z,98604.50
2019-05-05T07:18:03.707Z,98608.44
2019-05-05T07:20:07.720Z,98602.00
2019-05-05T07:22:11.428Z,98608.17
2019-05-05T07:24:15.309Z,98607.88
2019-05-05T07:26:19.044Z,98616.03
2019-05-05T07:28:23.506Z,98616.32
2019-05-05T07:30:27.428Z,98620.98
2019-05-05T07:32:31.235Z,98616.14
2019-05-05T07:34:54.502Z,98618.26
2019-05-05T07:36:58.128Z,98623.59
2019-05-05T07:39:03.808Z,98625.62
2019-05-05T07:41:07.474Z,98626.75
2019-05-05T07:43:11.357Z,98634.42
2019-05-05T07:45:22.142Z,98635.34
2019-05-05T07:47:20.950Z,98639.71
2019-05-05T07:49:24.798Z,98642.95
2019-05-05T07:51:29.580Z,98642.95
2019-05-05T07:53:33.608Z,98639.61
2019-05-05T07:55:37.384Z,98649.70
2019-05-05T07:57:43.414Z,98653.52
2019-05-05T07:59:46.733Z,98647.68
2019-05-05T08:01:50.584Z,98653.17
2019-05-05T08:03:54.316Z,98656.86
2019-05-05T08:05:58.128Z,98658.88
2019-05-05T08:08:01.947Z,98664.52
2019-05-05T08:10:05.918Z,98662.84
2019-05-05T08:12:10.122Z,98662.81
2019-05-05T08:14:14.550Z,98658.67
2019-05-05T08:16:38.352Z,98669.59
2019-05-05T08:18:57.626Z,98669.80
2019-05-05T08:21:04.311Z,98672.23
2019-05-05T08:23:28.002Z,98664.23
2019-05-05T08:25:36.173Z,98666.00
2019-05-05T08:27:39.567Z,98666.91
2019-05-05T08:29:50.219Z,98668.98
2019-05-05T08:31:58.762Z,98674.67
2019-05-05T08:34:03.826Z,98676.75
2019-05-05T08:36:07.662Z,98675.00
2019-05-05T08:38:13.684Z,98683.03
2019-05-05T08:40:17.151Z,98675.22
2019-05-05T08:42:20.934Z,98676.24
2019-05-05T08:44:24.728Z,98682.97
2019-05-05T08:46:28.540Z,98685.14
2019-05-05T08:48:34.161Z,98687.27
2019-05-05T08:50:37.958Z,98692.56
2019-05-05T08:52:41.706Z,98693.98
2019-05-05T08:54:45.473Z,98697.08
2019-05-05T08:56:49.367Z,98693.05
2019-05-05T08:58:54.497Z,98687.42
2019-05-05T09:00:58.315Z,98691.34
2019-05-05T09:03:03.821Z,98689.80
2019-05-05T09:05:08.202Z,98697.76
2019-05-05T09:07:13.759Z,98691.63
2019-05-05T09:09:18.632Z,98686.06
2019-05-05T09:11:24.095Z,98691.22
2019-05-05T09:13:27.824Z,98684.00
2019-05-05T09:15:33.600Z,98687.13
2019-05-05T09:17:37.105Z,98686.61
2019-05-05T09:19:40.829Z,98679.50
2019-05-05T09:21:44.861Z,98681.95
2019-05-05T09:23:59.125Z,98678.61
2019-05-05T09:26:14.398Z,98679.45
2019-05-05T09:28:37.213Z,98681.11
2019-05-05T09:30:44.449Z,98673.12
2019-05-05T09:32:48.207Z,98682.70
2019-05-05T09:34:53.924Z,98687.19
2019-05-05T09:36:58.695Z,98684.82
2019-05-05T09:39:04.349Z,98687.14
2019-05-05T09:41:08.117Z,98677.73
2019-05-05T09:43:12.012Z,98678.69
2019-05-05T09:45:15.805Z,98687.23
2019-05-05T09:47:19.601Z,98683.80
2019-05-05T09:49:24.625Z,98681.80
2019-05-05T09:51:28.552Z,98683.30
2019-05-05T09:53:34.272Z,98689.34
2019-05-05T09:55:37.798Z,98689.45
2019-05-05T09:57:43.650Z,98681.70
2019-05-05T09:59:47.163Z,98691.35
2019-05-05T10:01:51.044Z,98688.50
2019-05-05T10:03:57.481Z,98694.63
2019-05-05T10:06:04.678Z,98692.69
2019-05-05T10:08:07.699Z,98689.73
2019-05-05T10:10:13.808Z,98691.64
2019-05-05T10:12:17.336Z,98692.23
2019-05-05T10:14:21.282Z,98691.64
2019-05-05T10:16:25.045Z,98695.92
2019-05-05T10:18:28.867Z,98699.99
2019-05-05T10:20:34.381Z,98702.19
2019-05-05T10:22:38.427Z,98703.23
2019-05-05T10:24:48.718Z,98706.43
2019-05-05T10:26:54.296Z,98694.50
2019-05-05T10:29:01.103Z,98700.76
2019-05-05T10:31:04.936Z,98706.56
2019-05-05T10:33:08.688Z,98693.13
2019-05-05T10:35:14.339Z,98692.77
2019-05-05T10:37:18.148Z,98692.77
2019-05-05T10:39:38.829Z,98696.05
2019-05-05T10:41:44.159Z,98690.66
2019-05-05T10:43:47.991Z,98689.67
2019-05-05T10:45:51.701Z,98685.38
2019-05-05T10:47:55.625Z,98688.67
2019-05-05T10:49:59.388Z,98682.63
2019-05-05T10:52:03.867Z,98680.59
2019-05-05T10:54:07.887Z,98669.41
2019-05-05T10:56:13.667Z,98670.35
2019-05-05T10:58:19.873Z,98664.14
2019-05-05T11:00:44.393Z,98663.20
2019-05-05T11:02:48.579Z,98666.72
2019-05-05T11:04:54.471Z,98658.56
2019-05-05T11:06:57.943Z,98659.05
2019-05-05T11:09:04.335Z,98652.55
2019-05-05T11:11:08.029Z,98656.88
2019-05-05T11:13:12.740Z,98649.11
2019-05-05T11:15:16.688Z,98652.39
2019-05-05T11:17:20.439Z,98651.48
2019-05-05T11:19:24.192Z,98648.99
2019-05-05T11:21:27.987Z,98648.92
2019-05-05T11:23:34.346Z,98654.84
2019-05-05T11:25:38.099Z,98648.75
2019-05-05T11:27:43.861Z,98659.31
2019-05-05T11:30:05.136Z,98655.33
2019-05-05T11:32:15.439Z,98653.22
2019-05-05T11:34:24.649Z,98648.84
2019-05-05T11:36:37.081Z,98653.22
2019-05-05T11:38:41.593Z,98643.84
2019-05-05T11:40:45.478Z,98647.67
2019-05-05T11:42:49.238Z,98650.35
2019-05-05T11:44:53.044Z,98655.78
2019-05-05T11:46:56.903Z,98655.22
2019-05-05T11:49:00.632Z,98654.06
2019-05-05T11:51:04.724Z,98659.20
2019-05-05T11:53:08.498Z,98655.49
2019-05-05T11:55:14.811Z,98662.13
2019-05-05T11:57:17.918Z,98657.58
2019-05-05T11:59:23.759Z,98660.94
2019-05-05T12:01:27.663Z,98662.92
2019-05-05T12:03:33.746Z,98661.07
2019-05-05T12:05:36.979Z,98663.34
2019-05-05T12:07:40.814Z,98664.47
2019-05-05T12:09:54.995Z,98666.55
2019-05-05T12:11:58.765Z,98673.32
2019-05-05T12:14:03.918Z,98670.95
2019-05-05T12:16:09.263Z,98670.25
2019-05-05T12:18:14.355Z,98676.98
2019-05-05T12:20:24.096Z,98672.36
2019-05-05T12:22:27.762Z,98676.45
2019-05-05T12:24:34.603Z,98677.51
2019-05-05T12:27:00.332Z,98677.81
2019-05-05T12:29:14.080Z,98669.91
2019-05-05T12:31:21.182Z,98673.55
2019-05-05T12:33:25.078Z,98677.45
2019-05-05T12:35:28.810Z,98681.77
2019-05-05T12:37:34.130Z,98680.14
2019-05-05T12:39:37.939Z,98675.70
2019-05-05T12:41:41.915Z,98677.98
2019-05-05T12:43:45.737Z,98675.87
2019-05-05T12:45:54.052Z,98674.37
2019-05-05T12:48:17.731Z,98677.45
2019-05-05T12:50:21.609Z,98675.11
2019-05-05T12:52:25.361Z,98675.53
2019-05-05T12:54:29.248Z,98673.48
2019-05-05T12:56:34.029Z,98668.91
2019-05-05T12:58:38.922Z,98667.63
2019-05-05T13:00:46.015Z,98665.80
2019-05-05T13:02:49.871Z,98662.63
2019-05-05T13:04:53.657Z,98657.27
2019-05-05T13:06:57.327Z,98664.77
2019-05-05T13:09:02.123Z,98661.41
2019-05-05T13:11:05.925Z,98664.69
2019-05-05T13:13:09.880Z,98659.55
2019-05-05T13:15:14.383Z,98663.58
2019-05-05T13:17:18.155Z,98661.19
2019-05-05T13:19:31.145Z,98665.07
2019-05-05T13:21:54.916Z,98655.62
2019-05-05T13:24:07.166Z,98661.15
2019-05-05T13:26:23.575Z,98657.22
2019-05-05T13:28:27.451Z,98656.72
2019-05-05T13:30:31.319Z,98658.61
2019-05-05T13:32:35.128Z,98659.94
2019-05-05T13:34:38.874Z,98659.03
2019-05-05T13:36:44.120Z,98658.13
2019-05-05T13:38:48.009Z,98663.27
2019-05-05T13:40:51.737Z,98655.18
2019-05-05T13:42:55.536Z,98658.08
2019-05-05T13:45:08.129Z,98659.06
2019-05-05T13:47:11.913Z,98663.06
2019-05-05T13:49:20.227Z,98659.48
2019-05-05T13:51:24.156Z,98656.95
2019-05-05T13:53:27.818Z,98670.49
2019-05-05T13:55:31.636Z,98664.93
2019-05-05T13:57:35.527Z,98663.81
2019-05-05T13:59:39.485Z,98659.69
2019-05-05T14:01:44.783Z,98655.54
2019-05-05T14:03:48.791Z,98664.27
2019-05-05T14:05:54.093Z,98653.63
2019-05-05T14:07:57.813Z,98649.85
2019-05-05T14:10:03.806Z,98653.47
2019-05-05T14:12:07.167Z,98647.51
2019-05-05T14:14:11.007Z,98646.77
2019-05-05T14:16:14.788Z,98644.09
2019-05-05T14:18:18.509Z,98649.67
2019-05-05T14:20:23.995Z,98649.47
2019-05-05T14:22:27.829Z,98641.09
2019-05-05T14:24:39.491Z,98638.96
2019-05-05T14:26:43.211Z,98638.70
2019-05-05T14:28:47.047Z,98640.38
2019-05-05T14:30:55.884Z,98640.95
2019-05-05T14:33:00.899Z,98639.64
2019-05-05T14:35:22.452Z,98638.04
2019-05-05T14:37:53.379Z,98641.33
2019-05-05T14:39:57.005Z,98639.14
2019-05-05T14:42:00.739Z,98645.67
2019-05-05T14:44:04.604Z,98646.70
2019-05-05T14:46:08.492Z,98643.09
2019-05-05T14:48:14.379Z,98641.66
2019-05-05T14:50:18.649Z,98649.25
2019-05-05T14:52:24.595Z,98645.63
2019-05-05T14:54:27.975Z,98647.48
2019-05-05T14:56:36.465Z,98651.48
2019-05-05T14:58:37.307Z,98644.28
2019-05-05T15:00:41.218Z,98644.99
2019-05-05T15:02:45.016Z,98648.48
2019-05-05T15:04:48.833Z,98643.51
2019-05-05T15:07:10.754Z,98651.66
2019-05-05T15:09:33.618Z,98645.85
2019-05-05T15:11:47.682Z,98648.20
2019-05-05T15:13:51.400Z,98652.81
2019-05-05T15:15:55.129Z,98648.20
2019-05-05T15:17:58.944Z,98644.19
2019-05-05T15:20:02.814Z,98643.17
2019-05-05T15:22:06.630Z,98647.56
2019-05-05T15:24:10.525Z,98638.05
2019-05-05T15:26:14.279Z,98636.97
2019-05-05T15:28:18.090Z,98639.68
2019-05-05T15:30:24.923Z,98640.19
2019-05-05T15:32:27.395Z,98643.97
2019-05-05T15:34:34.249Z,98639.27
2019-05-05T15:36:37.844Z,98643.84
2019-05-05T15:38:43.795Z,98648.48
2019-05-05T15:40:48.662Z,98647.11
2019-05-05T15:42:54.326Z,98642.20
2019-05-05T15:44:58.080Z,98641.38
2019-05-05T15:47:01.827Z,98642.20
2019-05-05T15:49:06.643Z,98640.84
2019-05-05T15:51:10.367Z,98640.84
2019-05-05T15:53:14.444Z,98645.98
2019-05-05T15:55:18.598Z,98650.08
2019-05-05T15:57:24.107Z,98643.22
2019-05-05T15:59:28.009Z,98645.63
2019-05-05T16:01:31.805Z,98653.23
2019-05-05T16:03:35.631Z,98652.14
2019-05-05T16:05:39.498Z,98650.21
2019-05-05T16:07:43.960Z,98659.23
2019-05-05T16:09:47.957Z,98653.48
2019-05-05T16:11:51.693Z,98661.13
2019-05-05T16:13:55.422Z,98655.70
2019-05-05T16:16:21.197Z,98654.90
2019-05-05T16:18:32.694Z,98653.02
2019-05-05T16:20:41.242Z,98655.52
2019-05-05T16:22:51.564Z,98649.25
2019-05-05T16:25:14.413Z,98649.84
2019-05-05T16:27:21.986Z,98652.58
2019-05-05T16:29:23.856Z,98646.84
2019-05-05T16:31:27.834Z,98650.97
2019-05-05T16:33:33.427Z,98642.53
2019-05-05T16:35:37.194Z,98651.02
2019-05-05T16:37:40.957Z,98649.66
2019-05-05T16:39:44.796Z,98648.29
2019-05-05T16:41:48.597Z,98652.68
2019-05-05T16:43:53.449Z,98645.80
2019-05-05T16:45:58.380Z,98645.20
2019-05-05T16:48:03.918Z,98651.77
2019-05-05T16:50:08.137Z,98652.33
2019-05-05T16:52:18.473Z,98653.45
2019-05-05T16:54:33.562Z,98654.81
2019-05-05T16:56:37.122Z,98655.03
2019-05-05T16:58:41.007Z,98658.30
2019-05-05T17:00:44.803Z,98660.50
2019-05-05T17:02:48.532Z,98661.59
2019-05-05T17:04:53.891Z,98665.98
2019-05-05T17:06:57.675Z,98661.36
2019-05-05T17:09:01.483Z,98658.63
2019-05-05T17:11:05.546Z,98659.69
2019-05-05T17:13:37.409Z,98659.13
2019-05-05T17:15:58.856Z,98664.06
2019-05-05T17:18:32.512Z,98668.13
2019-05-05T17:20:28.516Z,98669.70
2019-05-05T17:22:51.291Z,98665.58
2019-05-05T17:24:55.341Z,98664.78
2019-05-05T17:26:59.223Z,98674.02
2019-05-05T17:29:03.749Z,98670.98
2019-05-05T17:31:07.562Z,98672.91
2019-05-05T17:33:11.364Z,98676.98
2019-05-05T17:35:15.325Z,98679.12
2019-05-05T17:37:19.082Z,98674.16
2019-05-05T17:39:24.294Z,98674.70
2019-05-05T17:41:50.110Z,98672.77
2019-05-05T17:44:03.347Z,98672.73
2019-05-05T17:46:10.876Z,98668.02
2019-05-05T17:48:36.703Z,98667.16
2019-05-05T17:50:59.157Z,98673.67
2019-05-05T17:53:09.379Z,98672.78
2019-05-05T17:55:33.986Z,98678.48
2019-05-05T17:57:37.746Z,98674.05
2019-05-05T17:59:41.619Z,98682.14
2019-05-05T18:01:45.348Z,98680.24
2019-05-05T18:03:49.134Z,98676.68
2019-05-05T18:06:14.236Z,98686.46
2019-05-05T18:08:39.559Z,98689.19
2019-05-05T18:10:46.804Z,98682.06
2019-05-05T18:13:15.620Z,98683.97
2019-05-05T18:15:36.931Z,98691.28
2019-05-05T18:17:40.648Z,98692.77
2019-05-05T18:19:44.364Z,98695.65
2019-05-05T18:21:48.095Z,98696.98
2019-05-05T18:23:51.872Z,98693.95
2019-05-05T18:25:55.689Z,98698.56
2019-05-05T18:28:12.803Z,98694.13
2019-05-05T18:30:05.234Z,98696.18
2019-05-05T18:32:09.028Z,98691.48
2019-05-05T18:34:13.458Z,98696.63
2019-05-05T18:36:17.387Z,98702.23
2019-05-05T18:38:21.229Z,98702.36
2019-05-05T18:40:25.122Z,98701.75
2019-05-05T18:42:28.879Z,98701.10
2019-05-05T18:44:36.350Z,98707.26
2019-05-05T18:46:40.165Z,98709.62
2019-05-05T18:48:43.946Z,98716.27
2019-05-05T18:50:47.830Z,98720.61
2019-05-05T18:52:53.653Z,98714.02
2019-05-05T18:54:57.166Z,98721.30
2019-05-05T18:57:02.181Z,98729.39
2019-05-05T18:59:06.766Z,98727.14
2019-05-05T19:01:28.303Z,98729.03
2019-05-05T19:03:35.470Z,98734.88
2019-05-05T19:06:07.422Z,98734.41
2019-05-05T19:08:32.523Z,98734.80
2019-05-05T19:10:36.316Z,98737.31
2019-05-05T19:12:40.126Z,98742.86
2019-05-05T19:14:44.301Z,98735.89
2019-05-05T19:16:48.195Z,98743.89
2019-05-05T19:18:53.975Z,98747.45
2019-05-05T19:21:03.598Z,98747.17
2019-05-05T19:23:07.443Z,98752.44
2019-05-05T19:25:16.582Z,98750.84
2019-05-05T19:27:20.444Z,98746.84
2019-05-05T19:29:24.358Z,98746.94
2019-05-05T19:31:28.181Z,98751.89
2019-05-05T19:33:33.931Z,98752.33
2019-05-05T19:35:43.967Z,98753.56
2019-05-05T19:37:44.538Z,98755.44
2019-05-05T19:39:48.420Z,98750.34
2019-05-05T19:41:54.439Z,98753.98
2019-05-05T19:43:57.767Z,98755.22
2019-05-05T19:46:01.942Z,98753.45
2019-05-05T19:48:06.099Z,98752.73
2019-05-05T19:50:18.804Z,98756.61
2019-05-05T19:52:24.032Z,98761.84
2019-05-05T19:54:28.870Z,98760.84
2019-05-05T19:56:33.860Z,98759.11
2019-05-05T19:58:37.702Z,98755.55
2019-05-05T20:00:41.514Z,98762.90
2019-05-05T20:02:45.307Z,98768.84
2019-05-05T20:04:49.036Z,98762.34
2019-05-05T20:06:54.810Z,98767.64
2019-05-05T20:08:58.761Z,98772.86
2019-05-05T20:11:04.680Z,98769.30
2019-05-05T20:13:07.984Z,98771.95
2019-05-05T20:15:16.618Z,98764.05
2019-05-05T20:17:25.980Z,98770.14
2019-05-05T20:19:34.218Z,98773.48
2019-05-05T20:21:37.952Z,98768.67
2019-05-05T20:23:43.623Z,98771.70
2019-05-05T20:25:47.520Z,98775.48
2019-05-05T20:27:51.329Z,98769.31
2019-05-05T20:29:55.141Z,98773.69
2019-05-05T20:32:00.081Z,98775.13
2019-05-05T20:34:13.493Z,98778.73
2019-05-05T20:36:20.311Z,98781.05
2019-05-05T20:38:29.697Z,98777.82
2019-05-05T20:40:35.705Z,98774.34
2019-05-05T20:42:39.501Z,98771.04
2019-05-05T20:44:43.851Z,98771.04
2019-05-05T20:46:50.724Z,98767.66
2019-05-05T20:48:54.686Z,98765.39
2019-05-05T20:50:58.347Z,98766.59
2019-05-05T20:53:02.177Z,98761.53
2019-05-05T20:55:06.048Z,98764.92
2019-05-05T20:57:10.875Z,98760.63
2019-05-05T20:59:27.513Z,98767.69
2019-05-05T21:01:20.153Z,98765.66
2019-05-05T21:03:23.924Z,98760.23
2019-05-05T21:05:27.743Z,98760.15
2019-05-05T21:07:31.517Z,98761.34
2019-05-05T21:09:41.177Z,98758.19
2019-05-05T21:11:44.982Z,98767.04
2019-05-05T21:13:48.685Z,98767.88
2019-05-05T21:15:53.868Z,98775.64
2019-05-05T21:17:57.815Z,98777.78
2019-05-05T21:20:04.193Z,98778.45
2019-05-05T21:22:38.656Z,98772.11
2019-05-05T21:24:44.384Z,98771.28
2019-05-05T21:26:59.265Z,98768.89
2019-05-05T21:29:04.589Z,98768.66
2019-05-05T21:31:08.422Z,98768.28
2019-05-05T21:33:12.142Z,98763.39
2019-05-05T21:35:15.981Z,98771.43
2019-05-05T21:37:19.765Z,98767.97
2019-05-05T21:39:24.811Z,98767.89
2019-05-05T21:41:28.814Z,98770.95
2019-05-05T21:43:32.600Z,98771.46
2019-05-05T21:45:36.402Z,98775.75
2019-05-05T21:47:40.257Z,98771.30
2019-05-05T21:49:43.977Z,98777.80
2019-05-05T21:52:19.221Z,98775.77
2019-05-05T21:54:44.725Z,98781.09
2019-05-05T21:57:00.466Z,98786.56
2019-05-05T21:59:04.353Z,98782.75
2019-05-05T22:01:14.853Z,98783.27
2019-05-05T22:03:26.970Z,98779.35
2019-05-05T22:05:30.694Z,98782.48
2019-05-05T22:07:34.516Z,98778.72
2019-05-05T22:09:38.318Z,98783.84
2019-05-05T22:11:44.279Z,98776.06
2019-05-05T22:13:48.065Z,98779.20
2019-05-05T22:15:51.944Z,98778.36
2019-05-05T22:17:55.757Z,98774.53
2019-05-05T22:20:06.767Z,98772.25
2019-05-05T22:22:11.070Z,98773.83
2019-05-05T22:24:16.283Z,98773.94
2019-05-05T22:26:20.122Z,98770.44
2019-05-05T22:28:24.317Z,98772.42
2019-05-05T22:30:29.589Z,98776.52
2019-05-05T22:32:34.346Z,98767.77
2019-05-05T22:34:38.288Z,98771.21
2019-05-05T22:36:42.179Z,98770.00
2019-05-05T22:38:45.998Z,98774.05
2019-05-05T22:40:49.796Z,98772.38
2019-05-05T22:42:54.639Z,98780.20
2019-05-05T22:44:58.515Z,98777.36
2019-05-05T22:47:04.504Z,98776.01
2019-05-05T22:49:08.086Z,98773.86
2019-05-05T22:51:11.886Z,98770.66
2019-05-05T22:53:16.254Z,98771.91
2019-05-05T22:55:20.131Z,98773.48
2019-05-05T22:57:24.716Z,98778.99
2019-05-05T22:59:29.551Z,98772.69
2019-05-05T23:01:33.422Z,98772.46
2019-05-05T23:03:49.258Z,98778.28
2019-05-05T23:05:56.824Z,98772.59
2019-05-05T23:08:00.654Z,98779.73
2019-05-05T23:10:04.790Z,98781.79
2019-05-05T23:12:08.618Z,98781.69
2019-05-05T23:14:29.894Z,98781.17
2019-05-05T23:16:40.739Z,98785.33
2019-05-05T23:18:45.631Z,98786.49
2019-05-05T23:21:08.655Z,98776.94
2019-05-05T23:23:40.457Z,98778.52
2019-05-05T23:25:45.986Z,98776.55
2019-05-05T23:27:50.520Z,98784.47
2019-05-05T23:29:55.048Z,98780.44
2019-05-05T23:31:58.754Z,98778.57
2019-05-05T23:34:04.011Z,98777.63
2019-05-05T23:36:07.874Z,98776.92
2019-05-05T23:38:14.361Z,98776.83
2019-05-05T23:40:24.507Z,98774.86
2019-05-05T23:42:28.080Z,98776.01
2019-05-05T23:44:31.822Z,98777.36
2019-05-05T23:46:35.692Z,98774.76
2019-05-05T23:48:39.422Z,98777.14
2019-05-05T23:50:44.555Z,98782.15
2019-05-05T23:52:54.763Z,98781.41
2019-05-05T23:54:58.621Z,98776.22
2019-05-05T23:57:04.777Z,98776.24
2019-05-05T23:59:08.684Z,98777.58
